Soumaya-j — 5VAE7 — position and weather

sailwx.info

Track history (hours):
 
Tides and Currents Weather Stations Pressure Air Temp Water Temp Dewpoint Dewpoint Depression Visibility Wind Speed Wind Dir Waves Ship Positions

Soumaya-j

Last reported at 2017-Dec-08 21:33 UTC. Time now 2017-Dec-11 23:09 UTC.
Position N 36°08' E 025°58'.

Length 88 m; draft 6.2 m.

Type: Cargo ship. MMSI: 671036000.

Date/timePositionNaut miles runAvg speedWind from/ knotsBaromVisibWave heightAir tempDewpointWater temp
2017-Dec-08 21:33N 36°08' E 025°58'010.8
2017-Dec-08 21:30N 36°08' E 025°57'510.7
2017-Dec-08 21:01N 36°08' E 025°51'510.4
2017-Dec-08 20:30N 36°08' E 025°45'510.3
2017-Dec-08 20:00N 36°07' E 025°38'510.2
2017-Dec-08 19:30N 36°07' E 025°32'510.1
2017-Dec-08 19:00N 36°07' E 025°26'510.2
2017-Dec-08 18:30N 36°07' E 025°19'510.3
2017-Dec-08 18:00N 36°07' E 025°13'810.7
2017-Dec-08 17:14N 36°06' E 025°03'210.8
2017-Dec-08 17:00N 36°06' E 024°60'511.0
2017-Dec-08 16:30N 36°06' E 024°53'510.9
2017-Dec-08 16:00N 36°06' E 024°46'510.5
2017-Dec-08 15:30N 36°06' E 024°40'510.7
2017-Dec-08 15:00N 36°06' E 024°33'510.7
2017-Dec-08 14:30N 36°05' E 024°26'510.3
2017-Dec-08 14:00N 36°05' E 024°20'  
Track history (hours):
 
Tides and Currents Weather Stations Pressure Air Temp Water Temp Dewpoint Dewpoint Depression Visibility Wind Speed Wind Dir Waves Ship Positions

Soumaya-j

Last reported at 2017-Dec-08 21:33 UTC. Time now 2017-Dec-11 23:09 UTC.
Position N 36°08' E 025°58'.

Length 88 m; draft 6.2 m.

Type: Cargo ship. MMSI: 671036000.

Date/timePositionNaut miles runAvg speedWind from/ knotsBaromVisibWave heightAir tempDewpointWater temp
2017-Dec-08 21:33N 36°08' E 025°58'010.8
2017-Dec-08 21:30N 36°08' E 025°57'510.7
2017-Dec-08 21:01N 36°08' E 025°51'510.4
2017-Dec-08 20:30N 36°08' E 025°45'510.3
2017-Dec-08 20:00N 36°07' E 025°38'510.2
2017-Dec-08 19:30N 36°07' E 025°32'510.1
2017-Dec-08 19:00N 36°07' E 025°26'510.2
2017-Dec-08 18:30N 36°07' E 025°19'510.3
2017-Dec-08 18:00N 36°07' E 025°13'810.7
2017-Dec-08 17:14N 36°06' E 025°03'210.8
2017-Dec-08 17:00N 36°06' E 024°60'511.0
2017-Dec-08 16:30N 36°06' E 024°53'510.9
2017-Dec-08 16:00N 36°06' E 024°46'510.5
2017-Dec-08 15:30N 36°06' E 024°40'510.7
2017-Dec-08 15:00N 36°06' E 024°33'510.7
2017-Dec-08 14:30N 36°05' E 024°26'510.3
2017-Dec-08 14:00N 36°05' E 024°20'  

Dump ship's entire track history